createdAt,value
2023-01-09T00:01:23.909Z,3.42
2023-01-09T00:03:50.529Z,2.10
2023-01-09T00:06:16.891Z,1.50
2023-01-09T00:08:43.230Z,3.83
2023-01-09T00:11:09.615Z,0.95
2023-01-09T00:13:36.790Z,2.00
2023-01-09T00:16:05.187Z,0.82
2023-01-09T00:18:31.536Z,1.42
2023-01-09T00:21:00.785Z,1.08
2023-01-09T00:23:27.556Z,1.00
2023-01-09T00:26:14.645Z,0.80
2023-01-09T00:28:41.120Z,1.45
2023-01-09T00:31:10.161Z,0.90
2023-01-09T00:33:41.700Z,0.20
2023-01-09T00:36:08.997Z,2.50
2023-01-09T00:38:37.160Z,1.25
2023-01-09T00:41:06.081Z,3.05
2023-01-09T00:43:41.756Z,2.25
2023-01-09T00:46:08.831Z,0.28
2023-01-09T00:48:38.549Z,1.98
2023-01-09T00:51:05.245Z,1.17
2023-01-09T00:53:32.747Z,1.65
2023-01-09T00:56:02.214Z,0.88
2023-01-09T00:58:28.699Z,1.33
2023-01-09T01:00:55.154Z,0.73
2023-01-09T01:03:21.521Z,1.80
2023-01-09T01:06:06.636Z,2.42
2023-01-09T01:08:33.027Z,0.65
2023-01-09T01:11:05.359Z,1.95
2023-01-09T01:13:32.025Z,1.55
2023-01-09T01:15:58.329Z,1.73
2023-01-09T01:18:24.617Z,2.63
2023-01-09T01:20:50.909Z,2.17
2023-01-09T01:23:17.224Z,0.40
2023-01-09T01:25:43.568Z,0.93
2023-01-09T01:28:10.448Z,0.40
2023-01-09T01:30:42.198Z,1.98
2023-01-09T01:33:09.751Z,0.65
2023-01-09T01:35:36.649Z,1.15
2023-01-09T01:38:03.860Z,0.32
2023-01-09T01:40:30.728Z,0.30
2023-01-09T01:42:58.521Z,0.45
2023-01-09T01:45:27.199Z,1.75
2023-01-09T01:48:06.771Z,0.20
2023-01-09T01:50:38.561Z,1.23
2023-01-09T01:53:20.232Z,0.70
2023-01-09T01:56:10.911Z,1.65
2023-01-09T01:58:44.543Z,0.95
2023-01-09T02:01:10.886Z,0.95
2023-01-09T02:03:39.801Z,1.65
2023-01-09T02:06:07.117Z,0.63
2023-01-09T02:08:33.525Z,1.00
2023-01-09T02:11:00.097Z,2.15
2023-01-09T02:13:27.377Z,5.00
2023-01-09T02:16:14.877Z,1.88
2023-01-09T02:18:58.552Z,1.90
2023-01-09T02:21:48.507Z,2.28
2023-01-09T02:24:52.567Z,1.83
2023-01-09T02:27:56.485Z,0.43
2023-01-09T02:30:40.195Z,0.95
2023-01-09T02:33:44.157Z,1.25
2023-01-09T02:36:20.874Z,1.88
2023-01-09T02:39:24.907Z,0.40
2023-01-09T02:41:57.286Z,0.88
2023-01-09T02:44:26.062Z,2.85
2023-01-09T02:47:06.318Z,3.95
2023-01-09T02:49:36.759Z,2.67
2023-01-09T02:52:15.055Z,1.00
2023-01-09T02:54:56.657Z,4.55
2023-01-09T02:57:28.563Z,0.93
2023-01-09T03:00:13.152Z,0.85
2023-01-09T03:02:48.538Z,1.63
2023-01-09T03:05:18.993Z,2.83
2023-01-09T03:07:53.727Z,4.40
2023-01-09T03:10:39.611Z,1.33
2023-01-09T03:13:11.116Z,3.10
2023-01-09T03:15:40.293Z,0.98
2023-01-09T03:18:10.509Z,2.42
2023-01-09T03:20:38.631Z,1.10
2023-01-09T03:23:07.190Z,2.30
2023-01-09T03:25:34.296Z,3.00
2023-01-09T03:28:06.321Z,2.78
2023-01-09T03:30:34.641Z,3.75
2023-01-09T03:33:01.583Z,2.65
2023-01-09T03:35:28.468Z,1.90
2023-01-09T03:37:54.941Z,2.40
2023-01-09T03:40:22.273Z,4.72
2023-01-09T03:42:48.574Z,4.18
2023-01-09T03:45:14.968Z,2.85
2023-01-09T03:47:41.265Z,5.05
2023-01-09T03:50:08.318Z,4.07
2023-01-09T03:52:35.897Z,4.15
2023-01-09T03:55:02.263Z,1.67
2023-01-09T03:57:28.558Z,1.33
2023-01-09T03:59:55.025Z,3.67
2023-01-09T04:02:21.341Z,1.50
2023-01-09T04:04:47.628Z,5.47
2023-01-09T04:07:13.958Z,4.10
2023-01-09T04:09:40.263Z,7.95
2023-01-09T04:12:06.727Z,2.72
2023-01-09T04:14:33.014Z,1.35
2023-01-09T04:16:59.315Z,4.07
2023-01-09T04:19:25.623Z,5.50
2023-01-09T04:21:51.979Z,2.15
2023-01-09T04:24:18.480Z,3.67
2023-01-09T04:26:44.816Z,2.42
2023-01-09T04:29:11.148Z,2.92
2023-01-09T04:31:37.505Z,3.17
2023-01-09T04:34:04.129Z,6.47
2023-01-09T04:36:30.587Z,2.03
2023-01-09T04:38:56.929Z,5.65
2023-01-09T04:41:41.789Z,4.15
2023-01-09T04:44:08.096Z,3.08
2023-01-09T04:46:34.397Z,4.07
2023-01-09T04:49:00.757Z,3.85
2023-01-09T04:51:27.063Z,4.15
2023-01-09T04:53:53.361Z,2.58
2023-01-09T04:56:19.728Z,3.88
2023-01-09T04:58:46.017Z,5.70
2023-01-09T05:01:12.619Z,3.03
2023-01-09T05:03:38.966Z,3.25
2023-01-09T05:06:05.520Z,3.08
2023-01-09T05:08:31.829Z,4.63
2023-01-09T05:10:58.178Z,4.20
2023-01-09T05:13:24.478Z,1.08
2023-01-09T05:15:50.778Z,3.72
2023-01-09T05:18:17.156Z,4.40
2023-01-09T05:20:43.486Z,1.20
2023-01-09T05:23:09.816Z,4.25
2023-01-09T05:25:36.136Z,3.90
2023-01-09T05:28:02.416Z,4.47
2023-01-09T05:30:28.766Z,3.00
2023-01-09T05:32:55.125Z,4.80
2023-01-09T05:35:21.792Z,2.78
2023-01-09T05:37:48.121Z,4.57
2023-01-09T05:40:14.514Z,9.77
2023-01-09T05:42:42.693Z,2.80
2023-01-09T05:45:09.586Z,8.05
2023-01-09T05:47:36.318Z,4.82
2023-01-09T05:50:04.070Z,6.00
2023-01-09T05:52:30.429Z,2.17
2023-01-09T05:54:56.751Z,3.58
2023-01-09T05:57:23.194Z,3.88
2023-01-09T05:59:49.488Z,3.88
2023-01-09T06:02:15.889Z,7.47
2023-01-09T06:04:43.675Z,4.68
2023-01-09T06:07:10.002Z,5.75
2023-01-09T06:09:36.316Z,2.58
2023-01-09T06:12:02.693Z,4.70
2023-01-09T06:14:29.672Z,5.68
2023-01-09T06:16:55.984Z,1.92
2023-01-09T06:19:22.287Z,5.50
2023-01-09T06:21:48.595Z,4.35
2023-01-09T06:24:14.963Z,4.68
2023-01-09T06:26:41.330Z,5.47
2023-01-09T06:29:08.466Z,3.33
2023-01-09T06:31:34.815Z,4.63
2023-01-09T06:34:01.193Z,6.30
2023-01-09T06:36:27.509Z,5.18
2023-01-09T06:38:53.904Z,4.00
2023-01-09T06:41:20.192Z,4.82
2023-01-09T06:43:46.474Z,4.57
2023-01-09T06:46:12.835Z,5.78
2023-01-09T06:48:39.190Z,5.28
2023-01-09T06:51:05.856Z,4.78
2023-01-09T06:53:32.184Z,4.22
2023-01-09T06:55:58.483Z,5.03
2023-01-09T06:58:25.070Z,3.63
2023-01-09T07:00:53.224Z,2.13
2023-01-09T07:03:21.914Z,3.08
2023-01-09T07:05:49.387Z,7.38
2023-01-09T07:08:15.973Z,7.18
2023-01-09T07:10:43.463Z,10.50
2023-01-09T07:13:10.446Z,3.33
2023-01-09T07:15:37.323Z,4.07
2023-01-09T07:18:04.102Z,6.85
2023-01-09T07:20:30.781Z,5.22
2023-01-09T07:22:57.639Z,6.50
2023-01-09T07:25:24.146Z,1.98
2023-01-09T07:27:50.463Z,4.00
2023-01-09T07:30:17.191Z,4.40
2023-01-09T07:32:43.608Z,6.60
2023-01-09T07:35:10.752Z,5.78
2023-01-09T07:37:37.132Z,7.55
2023-01-09T07:40:03.798Z,3.72
2023-01-09T07:42:30.155Z,7.00
2023-01-09T07:44:56.506Z,5.20
2023-01-09T07:47:22.792Z,4.70
2023-01-09T07:49:49.089Z,4.20
2023-01-09T07:52:15.606Z,10.02
2023-01-09T07:54:41.911Z,8.35
2023-01-09T07:57:08.234Z,2.97
2023-01-09T07:59:34.576Z,3.42
2023-01-09T08:02:02.414Z,7.75
2023-01-09T08:04:28.846Z,4.32
2023-01-09T08:06:56.735Z,5.68
2023-01-09T08:09:23.134Z,9.50
2023-01-09T08:11:50.645Z,6.82
2023-01-09T08:14:16.969Z,9.57
2023-01-09T08:16:43.299Z,8.70
2023-01-09T08:19:11.909Z,6.20
2023-01-09T08:21:39.541Z,4.05
2023-01-09T08:24:06.134Z,2.08
2023-01-09T08:26:32.545Z,7.85
2023-01-09T08:28:58.867Z,2.40
2023-01-09T08:31:25.232Z,4.45
2023-01-09T08:33:51.670Z,3.88
2023-01-09T08:36:18.179Z,7.85
2023-01-09T08:38:44.563Z,4.47
2023-01-09T08:41:29.364Z,2.05
2023-01-09T08:44:14.091Z,4.18
2023-01-09T08:47:00.379Z,5.35
2023-01-09T08:49:26.691Z,0.50
2023-01-09T08:51:52.995Z,3.67
2023-01-09T08:54:19.382Z,2.00
2023-01-09T08:56:45.668Z,1.70
2023-01-09T08:59:12.142Z,3.13
2023-01-09T09:01:38.660Z,4.30
2023-01-09T09:04:05.711Z,4.88
2023-01-09T09:06:33.247Z,4.32
2023-01-09T09:09:03.206Z,4.68
2023-01-09T09:11:30.474Z,2.75
2023-01-09T09:13:57.326Z,3.80
2023-01-09T09:16:25.390Z,1.13
2023-01-09T09:18:52.439Z,1.25
2023-01-09T09:21:20.225Z,3.50
2023-01-09T09:23:46.770Z,1.80
2023-01-09T09:26:13.135Z,2.95
2023-01-09T09:28:39.452Z,2.50
2023-01-09T09:31:06.720Z,5.43
2023-01-09T09:33:33.470Z,3.78
2023-01-09T09:36:00.467Z,3.58
2023-01-09T09:38:28.127Z,3.83
2023-01-09T09:41:33.150Z,0.93
2023-01-09T09:44:23.884Z,2.08
2023-01-09T09:47:15.643Z,0.70
2023-01-09T09:49:51.368Z,0.98
2023-01-09T09:52:29.270Z,2.22
2023-01-09T09:55:02.065Z,0.95
2023-01-09T09:57:37.953Z,3.30
2023-01-09T10:00:06.227Z,3.13
2023-01-09T10:02:47.297Z,3.72
2023-01-09T10:08:19.409Z,5.93
2023-01-09T10:10:55.640Z,2.55
2023-01-09T10:13:44.445Z,5.90
2023-01-09T10:16:46.132Z,2.15
2023-01-09T10:19:34.251Z,2.15
2023-01-09T10:22:15.151Z,2.28
2023-01-09T10:24:51.825Z,3.25
2023-01-09T10:27:41.122Z,2.13
2023-01-09T10:30:40.464Z,3.33
2023-01-09T10:33:29.512Z,3.88
2023-01-09T10:36:29.836Z,3.25
2023-01-09T10:39:01.545Z,3.53
2023-01-09T10:41:34.210Z,4.80
2023-01-09T10:44:07.831Z,3.60
2023-01-09T10:46:41.767Z,2.67
2023-01-09T10:49:15.913Z,4.28
2023-01-09T10:52:05.411Z,4.93
2023-01-09T10:54:32.122Z,4.07
2023-01-09T10:57:09.785Z,4.55
2023-01-09T10:59:36.209Z,3.45
2023-01-09T11:02:02.966Z,5.85
2023-01-09T11:04:31.700Z,2.17
2023-01-09T11:07:18.460Z,3.63
2023-01-09T11:10:05.467Z,2.28
2023-01-09T11:12:33.531Z,6.60
2023-01-09T11:15:16.066Z,2.08
2023-01-09T11:17:43.407Z,3.60
2023-01-09T11:20:28.199Z,3.22
2023-01-09T11:22:56.915Z,3.13
2023-01-09T11:25:28.630Z,1.58
2023-01-09T11:28:04.530Z,4.15
2023-01-09T11:30:34.067Z,6.15
2023-01-09T11:33:00.812Z,9.18
2023-01-09T11:35:33.960Z,4.75
2023-01-09T11:38:05.593Z,3.90
2023-01-09T11:43:32.550Z,3.25
2023-01-09T11:46:02.241Z,4.97
2023-01-09T11:48:40.495Z,4.22
2023-01-09T11:51:19.034Z,3.92
2023-01-09T11:54:17.648Z,5.70
2023-01-09T11:56:45.433Z,9.50
2023-01-09T11:59:14.717Z,1.73
2023-01-09T12:01:53.884Z,4.45
2023-01-09T12:04:44.448Z,1.88
2023-01-09T12:07:38.263Z,7.18
2023-01-09T12:10:27.668Z,1.63
2023-01-09T12:13:18.833Z,1.95
2023-01-09T12:16:03.385Z,2.10
2023-01-09T12:18:44.894Z,1.00
2023-01-09T12:21:23.402Z,3.63
2023-01-09T12:24:24.994Z,2.42
2023-01-09T12:27:06.489Z,3.17
2023-01-09T12:29:49.302Z,2.55
2023-01-09T12:32:30.815Z,2.05
2023-01-09T12:35:22.734Z,5.03
2023-01-09T12:38:23.975Z,4.18
2023-01-09T12:41:04.531Z,6.10
2023-01-09T12:44:24.284Z,4.50
2023-01-09T12:46:56.896Z,2.88
2023-01-09T12:49:37.361Z,2.53
2023-01-09T12:52:03.635Z,4.97
2023-01-09T12:54:45.881Z,2.38
2023-01-09T12:57:23.359Z,6.63
2023-01-09T13:00:00.501Z,4.50
2023-01-09T13:02:38.881Z,5.30
2023-01-09T13:05:17.167Z,3.90
2023-01-09T13:07:53.633Z,4.95
2023-01-09T13:10:39.311Z,7.50
2023-01-09T13:13:14.951Z,2.35
2023-01-09T13:15:47.077Z,4.95
2023-01-09T13:18:29.848Z,3.05
2023-01-09T13:20:56.701Z,3.40
2023-01-09T13:23:44.705Z,4.72
2023-01-09T13:26:18.882Z,5.78
2023-01-09T13:29:17.617Z,2.90
2023-01-09T13:31:59.354Z,3.83
2023-01-09T13:34:28.937Z,4.82
2023-01-09T13:36:57.604Z,4.63
2023-01-09T13:39:32.136Z,6.55
2023-01-09T13:42:20.930Z,8.65
2023-01-09T13:44:49.235Z,3.40
2023-01-09T13:47:24.972Z,2.63
2023-01-09T13:49:51.708Z,4.00
2023-01-09T13:52:24.188Z,2.75
2023-01-09T13:54:55.132Z,5.13
2023-01-09T13:57:29.023Z,8.00
2023-01-09T14:00:19.029Z,3.22
2023-01-09T14:02:49.616Z,6.05
2023-01-09T14:05:25.247Z,3.25
2023-01-09T14:08:02.580Z,4.90
2023-01-09T14:10:35.432Z,2.75
2023-01-09T14:13:08.799Z,4.72
2023-01-09T14:15:39.447Z,5.65
2023-01-09T14:18:27.342Z,6.75
2023-01-09T14:21:04.477Z,2.35
2023-01-09T14:23:50.417Z,6.18
2023-01-09T14:26:20.375Z,1.63
2023-01-09T14:28:46.890Z,2.42
2023-01-09T14:31:31.899Z,1.92
2023-01-09T14:34:37.448Z,3.05
2023-01-09T14:37:04.384Z,2.20
2023-01-09T14:39:32.195Z,2.38
2023-01-09T14:42:07.854Z,1.83
2023-01-09T14:44:40.714Z,5.28
2023-01-09T14:47:17.400Z,1.83
2023-01-09T14:49:48.784Z,2.08
2023-01-09T14:52:35.293Z,2.53
2023-01-09T14:55:06.597Z,1.05
2023-01-09T14:57:34.500Z,2.33
2023-01-09T15:00:05.099Z,1.40
2023-01-09T15:02:35.942Z,3.50
2023-01-09T15:05:09.365Z,6.78
2023-01-09T15:07:44.253Z,4.85
2023-01-09T15:10:21.646Z,5.60
2023-01-09T15:12:51.317Z,3.40
2023-01-09T15:15:20.325Z,4.72
2023-01-09T15:17:56.107Z,5.35
2023-01-09T15:20:29.839Z,2.17
2023-01-09T15:22:57.291Z,3.60
2023-01-09T15:25:38.012Z,2.17
2023-01-09T15:28:25.172Z,6.88
2023-01-09T15:31:00.684Z,6.97
2023-01-09T15:33:27.200Z,4.43
2023-01-09T15:36:00.014Z,5.10
2023-01-09T15:38:28.646Z,6.75
2023-01-09T15:40:59.100Z,4.72
2023-01-09T15:43:29.980Z,4.40
2023-01-09T15:45:58.252Z,6.20
2023-01-09T15:48:30.735Z,5.28
2023-01-09T15:51:02.364Z,5.45
2023-01-09T15:53:29.440Z,8.75
2023-01-09T15:56:21.169Z,8.05
2023-01-09T15:58:49.708Z,4.80
2023-01-09T16:01:36.039Z,7.55
2023-01-09T16:04:13.499Z,3.08
2023-01-09T16:06:51.617Z,8.73
2023-01-09T16:09:23.697Z,7.68
2023-01-09T16:11:53.035Z,5.05
2023-01-09T16:14:27.292Z,11.43
2023-01-09T16:16:58.861Z,8.93
2023-01-09T16:19:41.487Z,12.55
2023-01-09T16:22:26.299Z,8.75
2023-01-09T16:24:54.356Z,10.18
2023-01-09T16:27:25.843Z,8.00
2023-01-09T16:29:57.755Z,6.07
2023-01-09T16:32:32.232Z,8.07
2023-01-09T16:35:04.632Z,2.97
2023-01-09T16:37:32.143Z,12.32
2023-01-09T16:40:04.678Z,7.75
2023-01-09T16:42:50.911Z,6.63
2023-01-09T16:45:17.275Z,4.03
2023-01-09T16:47:43.627Z,14.35
2023-01-09T16:50:12.473Z,6.15
2023-01-09T16:52:39.183Z,7.55
2023-01-09T16:55:05.977Z,6.82
2023-01-09T16:57:34.927Z,9.43
2023-01-09T17:00:01.597Z,8.77
2023-01-09T17:02:28.181Z,6.65
2023-01-09T17:04:59.063Z,7.28
2023-01-09T17:07:25.463Z,5.32
2023-01-09T17:09:53.145Z,6.30
2023-01-09T17:12:22.212Z,8.55
2023-01-09T17:14:49.269Z,11.80
2023-01-09T17:17:17.262Z,6.55
2023-01-09T17:19:46.518Z,11.13
2023-01-09T17:22:14.056Z,8.35
2023-01-09T17:24:58.710Z,7.40
2023-01-09T17:27:51.169Z,12.48
2023-01-09T17:30:19.565Z,7.13
2023-01-09T17:32:46.786Z,10.52
2023-01-09T17:35:13.719Z,9.95
2023-01-09T17:37:40.059Z,8.23
2023-01-09T17:40:17.854Z,8.30
2023-01-09T17:42:44.262Z,11.35
2023-01-09T17:45:11.237Z,12.57
2023-01-09T17:47:37.630Z,8.77
2023-01-09T17:50:05.039Z,7.72
2023-01-09T17:52:32.893Z,9.73
2023-01-09T17:55:05.006Z,6.82
2023-01-09T17:57:32.354Z,5.15
2023-01-09T17:59:59.196Z,7.80
2023-01-09T18:02:25.593Z,9.05
2023-01-09T18:04:52.010Z,9.07
2023-01-09T18:07:18.464Z,8.68
2023-01-09T18:09:45.167Z,10.52
2023-01-09T18:12:11.507Z,14.50
2023-01-09T18:14:38.852Z,7.07
2023-01-09T18:17:06.105Z,5.25
2023-01-09T18:19:33.846Z,6.03
2023-01-09T18:22:00.346Z,5.20
2023-01-09T18:24:26.930Z,7.55
2023-01-09T18:26:54.200Z,6.53
2023-01-09T18:29:21.187Z,2.40
2023-01-09T18:31:48.121Z,7.40
2023-01-09T18:34:14.615Z,7.50
2023-01-09T18:36:40.960Z,5.95
2023-01-09T18:39:08.594Z,4.57
2023-01-09T18:41:34.958Z,7.68
2023-01-09T18:44:01.789Z,5.32
2023-01-09T18:46:31.817Z,7.43
2023-01-09T18:49:03.132Z,5.28
2023-01-09T18:51:30.070Z,8.00
2023-01-09T18:53:57.195Z,3.25
2023-01-09T18:56:24.669Z,6.00
2023-01-09T18:58:56.015Z,6.93
2023-01-09T19:01:22.482Z,5.15
2023-01-09T19:03:49.466Z,6.53
2023-01-09T19:06:15.787Z,9.60
2023-01-09T19:08:42.113Z,7.05
2023-01-09T19:11:08.483Z,4.13
2023-01-09T19:13:36.699Z,2.85
2023-01-09T19:16:05.165Z,3.33
2023-01-09T19:18:37.474Z,4.75
2023-01-09T19:21:26.988Z,3.67
2023-01-09T19:23:54.864Z,4.97
2023-01-09T19:26:26.551Z,4.07
2023-01-09T19:28:58.084Z,9.38
2023-01-09T19:31:28.170Z,6.40
2023-01-09T19:33:54.684Z,5.10
2023-01-09T19:36:21.762Z,5.35
2023-01-09T19:38:48.791Z,8.50
2023-01-09T19:41:19.027Z,4.28
2023-01-09T19:43:46.431Z,5.47
2023-01-09T19:46:19.002Z,3.47
2023-01-09T19:48:46.269Z,2.45
2023-01-09T19:51:14.184Z,6.10
2023-01-09T19:53:41.051Z,2.40
2023-01-09T19:56:13.433Z,3.40
2023-01-09T19:58:41.765Z,9.90
2023-01-09T20:01:11.707Z,4.82
2023-01-09T20:03:40.660Z,7.70
2023-01-09T20:06:13.754Z,6.93
2023-01-09T20:08:41.516Z,7.82
2023-01-09T20:11:08.062Z,2.17
2023-01-09T20:13:35.016Z,5.45
2023-01-09T20:16:02.245Z,3.50
2023-01-09T20:18:29.472Z,3.17
2023-01-09T20:20:58.917Z,5.88
2023-01-09T20:23:27.442Z,3.28
2023-01-09T20:25:55.228Z,8.23
2023-01-09T20:28:22.421Z,5.28
2023-01-09T20:30:51.448Z,5.95
2023-01-09T20:33:18.961Z,6.72
2023-01-09T20:35:45.310Z,5.57
2023-01-09T20:38:13.311Z,7.20
2023-01-09T20:40:43.614Z,8.63
2023-01-09T20:43:12.366Z,9.27
2023-01-09T20:45:39.824Z,8.77
2023-01-09T20:48:06.579Z,10.77
2023-01-09T20:50:33.119Z,9.63
2023-01-09T20:53:01.991Z,5.22
2023-01-09T20:55:28.386Z,5.88
2023-01-09T20:57:54.883Z,7.18
2023-01-09T21:00:21.588Z,8.88
2023-01-09T21:02:47.970Z,11.68
2023-01-09T21:05:14.452Z,8.45
2023-01-09T21:07:40.834Z,8.80
2023-01-09T21:10:07.594Z,14.50
2023-01-09T21:12:37.554Z,11.52
2023-01-09T21:15:07.202Z,8.30
2023-01-09T21:17:38.654Z,8.82
2023-01-09T21:20:09.321Z,11.27
2023-01-09T21:22:36.263Z,10.82
2023-01-09T21:25:03.113Z,9.85
2023-01-09T21:27:36.114Z,9.27
2023-01-09T21:30:07.394Z,8.85
2023-01-09T21:32:34.090Z,10.45
2023-01-09T21:35:05.003Z,8.82
2023-01-09T21:37:36.994Z,13.50
2023-01-09T21:40:06.698Z,12.43
2023-01-09T21:42:51.844Z,13.80
2023-01-09T21:45:37.088Z,10.38
2023-01-09T21:48:05.775Z,12.38
2023-01-09T21:50:36.637Z,8.15
2023-01-09T21:53:04.151Z,13.27
2023-01-09T21:55:32.049Z,10.35
2023-01-09T21:58:01.004Z,8.05
2023-01-09T22:00:28.254Z,8.85
2023-01-09T22:02:55.123Z,11.35
2023-01-09T22:05:21.752Z,13.15
2023-01-09T22:07:48.211Z,11.18
2023-01-09T22:10:14.639Z,13.98
2023-01-09T22:13:00.943Z,10.85
2023-01-09T22:15:27.392Z,7.80
2023-01-09T22:17:53.873Z,14.15
2023-01-09T22:20:20.539Z,10.57
2023-01-09T22:22:49.238Z,15.00
2023-01-09T22:25:16.307Z,12.82
2023-01-09T22:27:42.714Z,11.38
2023-01-09T22:30:10.638Z,17.58
2023-01-09T22:32:37.086Z,11.68
2023-01-09T22:35:03.738Z,12.05
2023-01-09T22:37:30.142Z,12.95
2023-01-09T22:39:56.556Z,11.85
2023-01-09T22:42:22.965Z,9.57
2023-01-09T22:44:49.332Z,15.88
2023-01-09T22:47:15.851Z,10.20
2023-01-09T22:49:52.362Z,12.20
2023-01-09T22:52:19.515Z,11.38
2023-01-09T22:54:45.862Z,15.85
2023-01-09T22:57:12.219Z,9.00
2023-01-09T22:59:38.556Z,10.13
2023-01-09T23:02:05.031Z,7.93
2023-01-09T23:04:31.477Z,12.57
2023-01-09T23:06:57.821Z,12.90
2023-01-09T23:09:24.772Z,8.93
2023-01-09T23:12:03.341Z,16.35
2023-01-09T23:14:31.554Z,14.63
2023-01-09T23:16:58.062Z,9.60
2023-01-09T23:19:24.566Z,7.32
2023-01-09T23:21:51.078Z,14.52
2023-01-09T23:24:18.533Z,7.82
2023-01-09T23:26:45.551Z,18.13
2023-01-09T23:29:15.767Z,7.20
2023-01-09T23:31:42.235Z,9.03
2023-01-09T23:34:12.581Z,11.13
2023-01-09T23:36:38.957Z,10.77
2023-01-09T23:39:08.774Z,9.88
2023-01-09T23:41:54.951Z,11.52
2023-01-09T23:44:21.422Z,12.52
2023-01-09T23:46:47.940Z,8.43
2023-01-09T23:49:14.276Z,8.43
2023-01-09T23:51:40.790Z,6.80
2023-01-09T23:54:07.394Z,8.05
2023-01-09T23:56:34.524Z,6.18
2023-01-09T23:59:01.942Z,7.82
